sensor_id;sensor_type;location;lat;lon;timestamp;pressure;altitude;pressure_sealevel;temperature;humidity
64679;BME280;51094;53.864;27.676;2022-09-09T00:00:15;100046.81;;;7.75;59.54
64679;BME280;51094;53.864;27.676;2022-09-09T00:02:59;100061.38;;;7.78;59.97
64679;BME280;51094;53.864;27.676;2022-09-09T00:05:35;100052.00;;;7.75;59.96
64679;BME280;51094;53.864;27.676;2022-09-09T00:08:15;100056.19;;;7.78;59.97
64679;BME280;51094;53.864;27.676;2022-09-09T00:10:45;100001.47;;;7.48;60.28
64679;BME280;51094;53.864;27.676;2022-09-09T00:13:30;99984.66;;;7.20;60.58
64679;BME280;51094;53.864;27.676;2022-09-09T00:16:10;100050.38;;;7.73;60.25
64679;BME280;51094;53.864;27.676;2022-09-09T00:21:18;100052.97;;;7.73;60.34
64679;BME280;51094;53.864;27.676;2022-09-09T00:23:50;99852.84;;;6.23;60.68
64679;BME280;51094;53.864;27.676;2022-09-09T00:26:38;100053.59;;;7.59;60.82
64679;BME280;51094;53.864;27.676;2022-09-09T00:31:34;99926.69;;;6.87;60.76
64679;BME280;51094;53.864;27.676;2022-09-09T00:34:16;100054.84;;;7.31;60.78
64679;BME280;51094;53.864;27.676;2022-09-09T00:36:45;100062.56;;;7.52;61.28
64679;BME280;51094;53.864;27.676;2022-09-09T00:39:34;99998.97;;;7.09;60.88
64679;BME280;51094;53.864;27.676;2022-09-09T00:42:08;100042.75;;;7.51;61.05
64679;BME280;51094;53.864;27.676;2022-09-09T00:44:37;100044.56;;;7.49;61.09
64679;BME280;51094;53.864;27.676;2022-09-09T00:47:14;99810.94;;;5.98;61.31
64679;BME280;51094;53.864;27.676;2022-09-09T00:49:47;100046.59;;;7.42;61.28
64679;BME280;51094;53.864;27.676;2022-09-09T00:52:40;100083.72;;;7.41;61.40
64679;BME280;51094;53.864;27.676;2022-09-09T00:55:17;99991.41;;;6.85;61.67
64679;BME280;51094;53.864;27.676;2022-09-09T00:57:51;99944.81;;;6.66;61.21
64679;BME280;51094;53.864;27.676;2022-09-09T01:00:31;100023.91;;;7.10;62.03
64679;BME280;51094;53.864;27.676;2022-09-09T01:03:21;100055.78;;;7.30;61.82
64679;BME280;51094;53.864;27.676;2022-09-09T01:08:51;100057.00;;;7.22;62.02
64679;BME280;51094;53.864;27.676;2022-09-09T01:14:29;100056.78;;;7.08;62.02
64679;BME280;51094;53.864;27.676;2022-09-09T01:17:01;100061.03;;;7.09;62.39
64679;BME280;51094;53.864;27.676;2022-09-09T01:25:21;100062.19;;;7.01;62.63
64679;BME280;51094;53.864;27.676;2022-09-09T01:28:05;100058.72;;;7.03;62.79
64679;BME280;51094;53.864;27.676;2022-09-09T01:30:38;100040.44;;;6.87;62.78
64679;BME280;51094;53.864;27.676;2022-09-09T01:33:11;100063.31;;;6.96;62.50
64679;BME280;51094;53.864;27.676;2022-09-09T01:35:46;100096.28;;;6.91;63.12
64679;BME280;51094;53.864;27.676;2022-09-09T01:38:17;100056.69;;;6.90;63.30
64679;BME280;51094;53.864;27.676;2022-09-09T01:40:46;100058.28;;;6.93;63.27
64679;BME280;51094;53.864;27.676;2022-09-09T01:43:14;100048.06;;;6.90;63.60
64679;BME280;51094;53.864;27.676;2022-09-09T01:45:42;100032.09;;;6.60;63.27
64679;BME280;51094;53.864;27.676;2022-09-09T01:48:10;99850.28;;;5.62;63.67
64679;BME280;51094;53.864;27.676;2022-09-09T01:50:45;100039.28;;;6.74;63.39
64679;BME280;51094;53.864;27.676;2022-09-09T01:53:13;100040.97;;;6.75;63.92
64679;BME280;51094;53.864;27.676;2022-09-09T01:55:51;99950.41;;;5.96;64.01
64679;BME280;51094;53.864;27.676;2022-09-09T02:04:23;99775.06;;;5.09;64.43
64679;BME280;51094;53.864;27.676;2022-09-09T02:06:56;100026.47;;;6.50;64.71
64679;BME280;51094;53.864;27.676;2022-09-09T02:09:29;99943.06;;;5.86;63.82
64679;BME280;51094;53.864;27.676;2022-09-09T02:12:10;100100.84;;;6.64;63.93
64679;BME280;51094;53.864;27.676;2022-09-09T02:14:55;99894.28;;;5.80;64.21
64679;BME280;51094;53.864;27.676;2022-09-09T02:17:30;100032.88;;;6.62;64.42
64679;BME280;51094;53.864;27.676;2022-09-09T02:20:07;99879.19;;;5.49;64.15
64679;BME280;51094;53.864;27.676;2022-09-09T02:22:53;99898.59;;;5.79;64.89
64679;BME280;51094;53.864;27.676;2022-09-09T02:25:26;99863.34;;;5.58;65.11
64679;BME280;51094;53.864;27.676;2022-09-09T02:27:58;100020.28;;;6.34;64.97
64679;BME280;51094;53.864;27.676;2022-09-09T02:30:27;99891.56;;;5.62;64.90
64679;BME280;51094;53.864;27.676;2022-09-09T02:32:58;100019.66;;;6.49;65.44
64679;BME280;51094;53.864;27.676;2022-09-09T02:35:43;99876.91;;;5.63;65.32
64679;BME280;51094;53.864;27.676;2022-09-09T02:38:13;100049.94;;;6.46;65.13
64679;BME280;51094;53.864;27.676;2022-09-09T02:40:50;100026.41;;;6.52;65.93
64679;BME280;51094;53.864;27.676;2022-09-09T02:43:18;100024.53;;;6.55;65.66
64679;BME280;51094;53.864;27.676;2022-09-09T02:45:53;99952.22;;;6.15;65.11
64679;BME280;51094;53.864;27.676;2022-09-09T02:48:30;100036.97;;;6.47;65.29
64679;BME280;51094;53.864;27.676;2022-09-09T02:51:25;99930.72;;;5.94;65.26
64679;BME280;51094;53.864;27.676;2022-09-09T02:54:10;99966.28;;;6.08;65.05
64679;BME280;51094;53.864;27.676;2022-09-09T02:56:47;100063.59;;;6.49;65.22
64679;BME280;51094;53.864;27.676;2022-09-09T02:59:18;99930.22;;;6.06;65.49
64679;BME280;51094;53.864;27.676;2022-09-09T03:01:45;99819.59;;;5.34;64.99
64679;BME280;51094;53.864;27.676;2022-09-09T03:04:11;99852.56;;;5.48;65.53
64679;BME280;51094;53.864;27.676;2022-09-09T03:06:38;100024.69;;;6.52;65.30
64679;BME280;51094;53.864;27.676;2022-09-09T03:09:15;99936.06;;;5.89;65.84
64679;BME280;51094;53.864;27.676;2022-09-09T03:11:41;100030.97;;;6.47;66.23
64679;BME280;51094;53.864;27.676;2022-09-09T03:14:08;99958.28;;;5.93;65.91
64679;BME280;51094;53.864;27.676;2022-09-09T03:16:35;100035.53;;;6.40;66.49
64679;BME280;51094;53.864;27.676;2022-09-09T03:19:02;100039.88;;;6.40;66.53
64679;BME280;51094;53.864;27.676;2022-09-09T03:21:29;100012.25;;;6.20;66.69
64679;BME280;51094;53.864;27.676;2022-09-09T03:23:56;99890.19;;;5.54;65.91
64679;BME280;51094;53.864;27.676;2022-09-09T03:26:23;100030.91;;;6.48;65.74
64679;BME280;51094;53.864;27.676;2022-09-09T03:28:50;100042.97;;;6.48;66.29
64679;BME280;51094;53.864;27.676;2022-09-09T03:31:21;100039.69;;;6.44;65.64
64679;BME280;51094;53.864;27.676;2022-09-09T03:33:47;100052.63;;;6.22;66.12
64679;BME280;51094;53.864;27.676;2022-09-09T03:36:16;100049.25;;;6.42;66.14
64679;BME280;51094;53.864;27.676;2022-09-09T03:38:43;99930.81;;;5.69;65.81
64679;BME280;51094;53.864;27.676;2022-09-09T03:41:11;99776.31;;;4.77;66.13
64679;BME280;51094;53.864;27.676;2022-09-09T03:43:39;99993.66;;;6.12;65.80
64679;BME280;51094;53.864;27.676;2022-09-09T03:46:05;100048.16;;;6.48;66.23
64679;BME280;51094;53.864;27.676;2022-09-09T03:48:32;100057.88;;;6.41;65.19
64679;BME280;51094;53.864;27.676;2022-09-09T03:50:59;100063.13;;;6.40;66.09
64679;BME280;51094;53.864;27.676;2022-09-09T03:53:29;100063.97;;;6.40;65.75
64679;BME280;51094;53.864;27.676;2022-09-09T03:55:57;100075.00;;;6.44;66.03
64679;BME280;51094;53.864;27.676;2022-09-09T03:58:27;99845.09;;;4.98;65.44
64679;BME280;51094;53.864;27.676;2022-09-09T04:01:04;100069.06;;;6.42;65.39
64679;BME280;51094;53.864;27.676;2022-09-09T04:03:31;100024.41;;;6.18;66.27
64679;BME280;51094;53.864;27.676;2022-09-09T04:06:00;100067.56;;;6.36;65.45
64679;BME280;51094;53.864;27.676;2022-09-09T04:08:29;100005.63;;;5.92;66.30
64679;BME280;51094;53.864;27.676;2022-09-09T04:10:58;100072.31;;;6.25;65.73
64679;BME280;51094;53.864;27.676;2022-09-09T04:13:26;99937.88;;;5.44;66.67
64679;BME280;51094;53.864;27.676;2022-09-09T04:15:56;100106.44;;;6.33;66.44
64679;BME280;51094;53.864;27.676;2022-09-09T04:18:24;99947.47;;;5.62;65.65
64679;BME280;51094;53.864;27.676;2022-09-09T04:20:52;100040.66;;;6.20;65.99
64679;BME280;51094;53.864;27.676;2022-09-09T04:23:21;100083.47;;;6.47;65.93
64679;BME280;51094;53.864;27.676;2022-09-09T04:25:50;100072.09;;;6.51;65.99
64679;BME280;51094;53.864;27.676;2022-09-09T04:28:19;100076.16;;;6.57;65.70
64679;BME280;51094;53.864;27.676;2022-09-09T04:30:46;100071.53;;;6.65;66.04
64679;BME280;51094;53.864;27.676;2022-09-09T04:33:14;99965.72;;;6.01;65.46
64679;BME280;51094;53.864;27.676;2022-09-09T04:35:49;100079.53;;;6.59;65.52
64679;BME280;51094;53.864;27.676;2022-09-09T04:38:17;99971.84;;;5.98;65.63
64679;BME280;51094;53.864;27.676;2022-09-09T04:40:49;100069.84;;;6.64;65.95
64679;BME280;51094;53.864;27.676;2022-09-09T04:43:17;100067.13;;;6.67;66.19
64679;BME280;51094;53.864;27.676;2022-09-09T04:45:49;100019.66;;;6.49;65.87
64679;BME280;51094;53.864;27.676;2022-09-09T04:48:20;100078.19;;;6.91;65.85
64679;BME280;51094;53.864;27.676;2022-09-09T04:51:06;100070.78;;;7.02;65.64
64679;BME280;51094;53.864;27.676;2022-09-09T04:53:34;99951.84;;;6.44;65.64
64679;BME280;51094;53.864;27.676;2022-09-09T04:56:05;100012.66;;;6.92;65.59
64679;BME280;51094;53.864;27.676;2022-09-09T04:58:37;100061.34;;;7.40;65.23
64679;BME280;51094;53.864;27.676;2022-09-09T05:01:11;100071.72;;;7.59;64.33
64679;BME280;51094;53.864;27.676;2022-09-09T05:03:40;100075.56;;;7.69;64.39
64679;BME280;51094;53.864;27.676;2022-09-09T05:06:12;99858.88;;;6.24;64.15
64679;BME280;51094;53.864;27.676;2022-09-09T05:08:40;100063.88;;;7.60;64.21
64679;BME280;51094;53.864;27.676;2022-09-09T05:11:18;100077.16;;;7.90;64.06
64679;BME280;51094;53.864;27.676;2022-09-09T05:13:46;100048.19;;;7.82;63.94
64679;BME280;51094;53.864;27.676;2022-09-09T05:16:14;100001.97;;;7.56;63.74
64679;BME280;51094;53.864;27.676;2022-09-09T05:18:41;100076.69;;;8.18;63.85
64679;BME280;51094;53.864;27.676;2022-09-09T05:21:10;100081.09;;;8.35;63.41
64679;BME280;51094;53.864;27.676;2022-09-09T05:23:37;100062.59;;;8.24;63.15
64679;BME280;51094;53.864;27.676;2022-09-09T05:26:05;100070.81;;;8.51;62.67
64679;BME280;51094;53.864;27.676;2022-09-09T05:28:34;100033.72;;;8.31;62.29
64679;BME280;51094;53.864;27.676;2022-09-09T05:31:04;100073.66;;;8.63;61.88
64679;BME280;51094;53.864;27.676;2022-09-09T05:33:34;100046.97;;;8.61;62.33
64679;BME280;51094;53.864;27.676;2022-09-09T05:36:06;100025.22;;;8.64;61.92
64679;BME280;51094;53.864;27.676;2022-09-09T05:38:34;100081.69;;;9.09;61.90
64679;BME280;51094;53.864;27.676;2022-09-09T05:41:02;100011.84;;;8.89;61.23
64679;BME280;51094;53.864;27.676;2022-09-09T05:43:30;100066.28;;;9.39;59.98
64679;BME280;51094;53.864;27.676;2022-09-09T05:46:00;100082.13;;;9.50;60.45
64679;BME280;51094;53.864;27.676;2022-09-09T05:48:29;100077.41;;;9.57;59.39
64679;BME280;51094;53.864;27.676;2022-09-09T05:50:57;100078.28;;;9.73;59.29
64679;BME280;51094;53.864;27.676;2022-09-09T05:53:25;100080.97;;;9.87;58.76
64679;BME280;51094;53.864;27.676;2022-09-09T05:56:03;100075.09;;;9.84;57.44
64679;BME280;51094;53.864;27.676;2022-09-09T05:58:32;100074.69;;;9.91;57.51
64679;BME280;51094;53.864;27.676;2022-09-09T06:01:10;100077.50;;;10.02;57.34
64679;BME280;51094;53.864;27.676;2022-09-09T06:03:38;100075.50;;;10.08;56.80
64679;BME280;51094;53.864;27.676;2022-09-09T06:06:08;100014.53;;;9.52;56.46
64679;BME280;51094;53.864;27.676;2022-09-09T06:08:37;100055.16;;;9.84;56.64
64679;BME280;51094;53.864;27.676;2022-09-09T06:11:08;99900.81;;;8.95;56.54
64679;BME280;51094;53.864;27.676;2022-09-09T06:13:37;100099.31;;;10.16;57.02
64679;BME280;51094;53.864;27.676;2022-09-09T06:16:08;100169.44;;;10.33;56.76
64679;BME280;51094;53.864;27.676;2022-09-09T06:18:35;100103.25;;;10.39;56.05
64679;BME280;51094;53.864;27.676;2022-09-09T06:21:04;100105.56;;;10.43;56.36
64679;BME280;51094;53.864;27.676;2022-09-09T06:23:33;100101.34;;;10.56;55.90
64679;BME280;51094;53.864;27.676;2022-09-09T06:26:07;100155.03;;;10.73;54.76
64679;BME280;51094;53.864;27.676;2022-09-09T06:28:35;100099.56;;;10.87;54.97
64679;BME280;51094;53.864;27.676;2022-09-09T06:31:07;99989.09;;;10.20;54.27
64679;BME280;51094;53.864;27.676;2022-09-09T06:33:36;100199.84;;;11.08;54.55
64679;BME280;51094;53.864;27.676;2022-09-09T06:36:06;100113.66;;;11.13;54.83
64679;BME280;51094;53.864;27.676;2022-09-09T06:38:33;100115.44;;;11.12;54.15
64679;BME280;51094;53.864;27.676;2022-09-09T06:40:59;100067.19;;;10.62;54.24
64679;BME280;51094;53.864;27.676;2022-09-09T06:43:28;99981.88;;;10.25;54.60
64679;BME280;51094;53.864;27.676;2022-09-09T06:45:59;100118.69;;;11.16;54.10
64679;BME280;51094;53.864;27.676;2022-09-09T06:48:27;100092.97;;;11.25;53.72
64679;BME280;51094;53.864;27.676;2022-09-09T06:51:08;100117.69;;;11.61;53.31
64679;BME280;51094;53.864;27.676;2022-09-09T06:53:36;100112.19;;;11.65;52.42
64679;BME280;51094;53.864;27.676;2022-09-09T06:58:43;100118.34;;;11.50;52.82
64679;BME280;51094;53.864;27.676;2022-09-09T07:01:19;100120.25;;;11.75;52.64
64679;BME280;51094;53.864;27.676;2022-09-09T07:03:48;100114.03;;;12.06;52.58
64679;BME280;51094;53.864;27.676;2022-09-09T07:06:20;100100.19;;;12.18;51.02
64679;BME280;51094;53.864;27.676;2022-09-09T07:09:01;100100.59;;;12.39;51.67
64679;BME280;51094;53.864;27.676;2022-09-09T07:11:37;100076.81;;;12.44;50.23
64679;BME280;51094;53.864;27.676;2022-09-09T07:14:04;100105.31;;;12.59;49.75
64679;BME280;51094;53.864;27.676;2022-09-09T07:16:31;100058.00;;;12.39;49.68
64679;BME280;51094;53.864;27.676;2022-09-09T07:19:01;100063.56;;;12.59;48.90
64679;BME280;51094;53.864;27.676;2022-09-09T07:21:30;99945.38;;;11.67;48.92
64679;BME280;51094;53.864;27.676;2022-09-09T07:23:57;100017.44;;;12.35;49.40
64679;BME280;51094;53.864;27.676;2022-09-09T07:26:26;100142.16;;;13.07;49.51
64679;BME280;51094;53.864;27.676;2022-09-09T07:28:54;100109.56;;;13.00;48.54
64679;BME280;51094;53.864;27.676;2022-09-09T07:31:28;100110.09;;;12.92;48.16
64679;BME280;51094;53.864;27.676;2022-09-09T07:33:58;100107.19;;;12.97;48.46
64679;BME280;51094;53.864;27.676;2022-09-09T07:36:31;100067.50;;;12.92;47.51
64679;BME280;51094;53.864;27.676;2022-09-09T07:39:11;100081.47;;;13.04;47.32
64679;BME280;51094;53.864;27.676;2022-09-09T07:41:45;100069.69;;;12.98;47.18
64679;BME280;51094;53.864;27.676;2022-09-09T07:44:21;100031.91;;;12.91;47.24
64679;BME280;51094;53.864;27.676;2022-09-09T07:46:50;100018.84;;;12.91;47.00
64679;BME280;51094;53.864;27.676;2022-09-09T07:49:22;100038.66;;;13.06;46.37
64679;BME280;51094;53.864;27.676;2022-09-09T07:51:58;100109.28;;;13.55;46.78
64679;BME280;51094;53.864;27.676;2022-09-09T07:54:25;100109.69;;;13.75;46.23
64679;BME280;51094;53.864;27.676;2022-09-09T07:56:52;100096.34;;;13.90;46.24
64679;BME280;51094;53.864;27.676;2022-09-09T07:59:22;99808.91;;;12.20;45.16
64679;BME280;51094;53.864;27.676;2022-09-09T08:01:52;100024.53;;;13.47;44.77
64679;BME280;51094;53.864;27.676;2022-09-09T08:04:24;100026.53;;;13.43;44.74
64679;BME280;51094;53.864;27.676;2022-09-09T08:06:57;100093.63;;;13.92;44.91
64679;BME280;51094;53.864;27.676;2022-09-09T08:09:26;100093.22;;;14.22;43.47
64679;BME280;51094;53.864;27.676;2022-09-09T08:12:02;100093.94;;;14.24;43.85
64679;BME280;51094;53.864;27.676;2022-09-09T08:14:29;100101.16;;;14.20;43.81
64679;BME280;51094;53.864;27.676;2022-09-09T08:16:57;100099.03;;;14.02;43.96
64679;BME280;51094;53.864;27.676;2022-09-09T08:19:26;100024.38;;;13.37;44.66
64679;BME280;51094;53.864;27.676;2022-09-09T08:21:57;100088.34;;;13.81;44.79
64679;BME280;51094;53.864;27.676;2022-09-09T08:24:26;100089.00;;;13.95;44.83
64679;BME280;51094;53.864;27.676;2022-09-09T08:26:53;100081.34;;;14.05;43.98
64679;BME280;51094;53.864;27.676;2022-09-09T08:29:22;100081.75;;;14.12;43.85
64679;BME280;51094;53.864;27.676;2022-09-09T08:31:59;100092.81;;;14.15;43.85
64679;BME280;51094;53.864;27.676;2022-09-09T08:34:27;99994.13;;;13.46;43.66
64679;BME280;51094;53.864;27.676;2022-09-09T08:36:56;99975.16;;;13.31;43.86
64679;BME280;51094;53.864;27.676;2022-09-09T08:39:29;100087.84;;;13.99;42.87
64679;BME280;51094;53.864;27.676;2022-09-09T08:48:08;100106.94;;;14.13;42.27
64679;BME280;51094;53.864;27.676;2022-09-09T08:50:40;100077.41;;;14.47;41.30
64679;BME280;51094;53.864;27.676;2022-09-09T08:53:20;100078.69;;;14.77;40.94
64679;BME280;51094;53.864;27.676;2022-09-09T08:55:58;100075.44;;;15.08;40.69
64679;BME280;51094;53.864;27.676;2022-09-09T08:58:49;100054.47;;;15.08;39.82
64679;BME280;51094;53.864;27.676;2022-09-09T09:07:18;100075.19;;;15.22;39.59
64679;BME280;51094;53.864;27.676;2022-09-09T09:10:21;100025.88;;;15.39;39.15
64679;BME280;51094;53.864;27.676;2022-09-09T09:13:17;99762.63;;;13.67;37.29
64679;BME280;51094;53.864;27.676;2022-09-09T09:15:51;100095.75;;;16.48;37.32
64679;BME280;51094;53.864;27.676;2022-09-09T09:18:20;100006.69;;;16.56;35.41
64679;BME280;51094;53.864;27.676;2022-09-09T09:20:54;99966.84;;;16.51;34.42
64679;BME280;51094;53.864;27.676;2022-09-09T09:23:31;100059.66;;;17.03;33.82
64679;BME280;51094;53.864;27.676;2022-09-09T09:26:06;100067.03;;;17.09;34.67
64679;BME280;51094;53.864;27.676;2022-09-09T09:28:36;100060.66;;;17.42;33.20
64679;BME280;51094;53.864;27.676;2022-09-09T09:31:11;100074.28;;;17.57;32.69
64679;BME280;51094;53.864;27.676;2022-09-09T09:33:52;100060.31;;;17.56;31.70
64679;BME280;51094;53.864;27.676;2022-09-09T09:36:33;100049.44;;;17.31;33.04
64679;BME280;51094;53.864;27.676;2022-09-09T09:39:02;100036.88;;;17.44;33.49
64679;BME280;51094;53.864;27.676;2022-09-09T09:41:51;99984.22;;;17.65;32.57
64679;BME280;51094;53.864;27.676;2022-09-09T09:44:30;100055.91;;;18.45;32.71
64679;BME280;51094;53.864;27.676;2022-09-09T09:47:13;100035.09;;;18.81;30.53
64679;BME280;51094;53.864;27.676;2022-09-09T09:49:57;100026.78;;;18.76;30.46
64679;BME280;51094;53.864;27.676;2022-09-09T09:52:28;100025.81;;;18.67;30.50
64679;BME280;51094;53.864;27.676;2022-09-09T09:54:58;100031.88;;;18.87;30.17
64679;BME280;51094;53.864;27.676;2022-09-09T09:57:33;99959.75;;;18.88;30.74
64679;BME280;51094;53.864;27.676;2022-09-09T10:00:12;100041.28;;;18.99;28.90
64679;BME280;51094;53.864;27.676;2022-09-09T10:02:43;100047.72;;;18.29;30.08
64679;BME280;51094;53.864;27.676;2022-09-09T10:05:28;99997.97;;;17.28;31.03
64679;BME280;51094;53.864;27.676;2022-09-09T10:08:14;99947.59;;;16.41;32.13
64679;BME280;51094;53.864;27.676;2022-09-09T10:19:04;99690.63;;;14.73;32.69
64679;BME280;51094;53.864;27.676;2022-09-09T10:21:45;100044.41;;;16.97;32.03
64679;BME280;51094;53.864;27.676;2022-09-09T10:30:02;100022.25;;;16.90;32.01
64679;BME280;51094;53.864;27.676;2022-09-09T10:32:46;99965.59;;;16.67;31.77
64679;BME280;51094;53.864;27.676;2022-09-09T10:35:46;100041.16;;;17.45;31.84
64679;BME280;51094;53.864;27.676;2022-09-09T10:38:32;100068.16;;;17.87;31.59
64679;BME280;51094;53.864;27.676;2022-09-09T10:41:13;99996.75;;;18.11;31.51
64679;BME280;51094;53.864;27.676;2022-09-09T10:44:30;99782.28;;;17.29;31.41
64679;BME280;51094;53.864;27.676;2022-09-09T10:46:58;100035.69;;;19.49;32.24
64679;BME280;51094;53.864;27.676;2022-09-09T10:52:33;100049.59;;;20.49;27.54
64679;BME280;51094;53.864;27.676;2022-09-09T10:57:43;99857.53;;;19.09;28.08
64679;BME280;51094;53.864;27.676;2022-09-09T11:00:24;99949.00;;;19.81;27.02
64679;BME280;51094;53.864;27.676;2022-09-09T11:03:00;100037.66;;;20.89;26.88
64679;BME280;51094;53.864;27.676;2022-09-09T11:05:36;100031.50;;;21.06;26.06
64679;BME280;51094;53.864;27.676;2022-09-09T11:08:12;100036.56;;;21.68;25.46
64679;BME280;51094;53.864;27.676;2022-09-09T11:13:26;99977.53;;;21.59;25.17
64679;BME280;51094;53.864;27.676;2022-09-09T11:18:58;99950.75;;;21.86;23.96
64679;BME280;51094;53.864;27.676;2022-09-09T11:21:47;99960.06;;;22.31;23.88
64679;BME280;51094;53.864;27.676;2022-09-09T11:24:30;99933.16;;;22.67;23.74
64679;BME280;51094;53.864;27.676;2022-09-09T11:27:06;99953.91;;;23.18;22.43
64679;BME280;51094;53.864;27.676;2022-09-09T11:29:43;100025.88;;;24.16;22.29
64679;BME280;51094;53.864;27.676;2022-09-09T11:40:59;100017.16;;;25.57;19.68
64679;BME280;51094;53.864;27.676;2022-09-09T11:43:29;100011.06;;;25.92;19.17
64679;BME280;51094;53.864;27.676;2022-09-09T11:46:00;99968.59;;;26.12;18.81
64679;BME280;51094;53.864;27.676;2022-09-09T11:51:34;100009.50;;;29.10;16.06
64679;BME280;51094;53.864;27.676;2022-09-09T11:54:02;99908.53;;;30.62;14.06
64679;BME280;51094;53.864;27.676;2022-09-09T11:56:31;100005.31;;;32.83;12.97
64679;BME280;51094;53.864;27.676;2022-09-09T11:59:04;99764.97;;;31.89;11.86
64679;BME280;51094;53.864;27.676;2022-09-09T12:07:02;99900.53;;;33.10;11.44
64679;BME280;51094;53.864;27.676;2022-09-09T12:14:53;99999.78;;;32.01;12.44
64679;BME280;51094;53.864;27.676;2022-09-09T12:17:22;100002.06;;;33.21;11.44
64679;BME280;51094;53.864;27.676;2022-09-09T12:20:16;99999.09;;;34.03;11.56
64679;BME280;51094;53.864;27.676;2022-09-09T12:22:59;100011.06;;;35.34;10.38
64679;BME280;51094;53.864;27.676;2022-09-09T12:28:17;100007.81;;;36.77;9.01
64679;BME280;51094;53.864;27.676;2022-09-09T12:31:06;100016.53;;;36.89;9.62
64679;BME280;51094;53.864;27.676;2022-09-09T12:33:39;99812.00;;;35.92;9.20
64679;BME280;51094;53.864;27.676;2022-09-09T12:36:19;100005.78;;;37.92;9.25
64679;BME280;51094;53.864;27.676;2022-09-09T12:38:48;100005.81;;;38.08;8.67
64679;BME280;51094;53.864;27.676;2022-09-09T12:41:25;99925.94;;;35.69;9.45
64679;BME280;51094;53.864;27.676;2022-09-09T12:44:06;100047.13;;;33.89;10.23
64679;BME280;51094;53.864;27.676;2022-09-09T12:46:41;99969.00;;;31.56;12.10
64679;BME280;51094;53.864;27.676;2022-09-09T12:49:28;100001.09;;;29.58;13.72
64679;BME280;51094;53.864;27.676;2022-09-09T12:51:57;99999.53;;;26.83;15.97
64679;BME280;51094;53.864;27.676;2022-09-09T12:54:24;100007.75;;;24.43;18.27
64679;BME280;51094;53.864;27.676;2022-09-09T12:56:51;99968.00;;;22.47;20.52
64679;BME280;51094;53.864;27.676;2022-09-09T12:59:24;99891.81;;;20.59;22.24
64679;BME280;51094;53.864;27.676;2022-09-09T13:01:56;99991.00;;;20.80;23.44
64679;BME280;51094;53.864;27.676;2022-09-09T13:04:23;99912.94;;;19.72;24.31
64679;BME280;51094;53.864;27.676;2022-09-09T13:06:49;99984.56;;;19.95;24.67
64679;BME280;51094;53.864;27.676;2022-09-09T13:09:19;99992.59;;;19.58;24.78
64679;BME280;51094;53.864;27.676;2022-09-09T13:11:50;100036.88;;;19.27;25.54
64679;BME280;51094;53.864;27.676;2022-09-09T13:14:22;99898.66;;;18.18;25.95
64679;BME280;51094;53.864;27.676;2022-09-09T13:16:56;99876.25;;;18.05;27.01
64679;BME280;51094;53.864;27.676;2022-09-09T13:19:23;99936.03;;;18.41;26.67
64679;BME280;51094;53.864;27.676;2022-09-09T13:21:54;99970.63;;;18.66;26.03
64679;BME280;51094;53.864;27.676;2022-09-09T13:24:34;99967.47;;;18.62;26.27
64679;BME280;51094;53.864;27.676;2022-09-09T13:27:04;99948.50;;;18.39;27.18
64679;BME280;51094;53.864;27.676;2022-09-09T13:29:32;99959.59;;;18.33;27.36
64679;BME280;51094;53.864;27.676;2022-09-09T13:32:06;99897.84;;;17.60;27.69
64679;BME280;51094;53.864;27.676;2022-09-09T13:34:35;99922.34;;;17.60;27.93
64679;BME280;51094;53.864;27.676;2022-09-09T13:37:06;99957.81;;;17.95;28.44
64679;BME280;51094;53.864;27.676;2022-09-09T13:39:34;99993.13;;;17.92;27.72
64679;BME280;51094;53.864;27.676;2022-09-09T13:42:03;99966.09;;;17.81;27.82
64679;BME280;51094;53.864;27.676;2022-09-09T13:44:34;99972.34;;;17.70;28.30
64679;BME280;51094;53.864;27.676;2022-09-09T13:47:05;99857.63;;;17.00;28.62
64679;BME280;51094;53.864;27.676;2022-09-09T13:49:36;99969.44;;;17.83;28.56
64679;BME280;51094;53.864;27.676;2022-09-09T13:52:11;99893.25;;;17.43;27.87
64679;BME280;51094;53.864;27.676;2022-09-09T13:54:38;99726.56;;;16.47;28.74
64679;BME280;51094;53.864;27.676;2022-09-09T13:57:11;99957.41;;;17.71;28.93
64679;BME280;51094;53.864;27.676;2022-09-09T13:59:40;99965.16;;;17.72;29.51
64679;BME280;51094;53.864;27.676;2022-09-09T14:02:29;99961.91;;;17.59;29.74
64679;BME280;51094;53.864;27.676;2022-09-09T14:04:57;99962.28;;;17.45;29.84
64679;BME280;51094;53.864;27.676;2022-09-09T14:07:24;99887.88;;;16.85;29.94
64679;BME280;51094;53.864;27.676;2022-09-09T14:09:51;99960.69;;;17.13;29.98
64679;BME280;51094;53.864;27.676;2022-09-09T14:12:18;99937.03;;;17.13;29.91
64679;BME280;51094;53.864;27.676;2022-09-09T14:14:45;99931.59;;;17.55;29.07
64679;BME280;51094;53.864;27.676;2022-09-09T14:17:12;99815.91;;;17.16;28.75
64679;BME280;51094;53.864;27.676;2022-09-09T14:19:39;99871.41;;;17.33;28.92
64679;BME280;51094;53.864;27.676;2022-09-09T14:22:05;99956.81;;;17.77;29.27
64679;BME280;51094;53.864;27.676;2022-09-09T14:24:32;99928.66;;;17.39;29.69
64679;BME280;51094;53.864;27.676;2022-09-09T14:27:00;99866.25;;;16.72;30.20
64679;BME280;51094;53.864;27.676;2022-09-09T14:29:26;99907.09;;;16.85;30.61
64679;BME280;51094;53.864;27.676;2022-09-09T14:31:53;99956.88;;;16.87;31.06
64679;BME280;51094;53.864;27.676;2022-09-09T14:34:20;99929.97;;;16.53;31.05
64679;BME280;51094;53.864;27.676;2022-09-09T14:36:47;99642.63;;;14.63;31.21
64679;BME280;51094;53.864;27.676;2022-09-09T14:39:13;99940.50;;;16.32;31.79
64679;BME280;51094;53.864;27.676;2022-09-09T14:41:40;99956.16;;;16.22;31.73
64679;BME280;51094;53.864;27.676;2022-09-09T14:44:06;99859.75;;;15.62;32.23